Time;durP1;ratioP1;P1;durP2;ratioP2;P2;SDS_P1;SDS_P2;PMS_P1;PMS_P2;Temp;Humidity;BMP_temperature;BMP_pressure;BME280_temperature;BME280_humidity;BME280_pressure;Samples;Min_cycle;Max_cycle;Signal;HPM_P1;HPM_P2
2022/09/26 00:01:24;;;;;;;44.33;25.88;;;6.20;99.90;;;;;;5073497;28;20115;-73
2022/09/26 00:03:52;;;;;;;49.55;26.45;;;6.10;99.90;;;;;;5074693;28;20078;-73
2022/09/26 00:06:19;;;;;;;42.00;25.75;;;6.10;99.90;;;;;;5074862;28;20028;-73
2022/09/26 00:08:46;;;;;;;50.55;29.40;;;6.10;99.90;;;;;;5073262;28;20056;-73
2022/09/26 00:11:14;;;;;;;49.47;29.48;;;6.00;99.90;;;;;;5073517;28;20025;-80
2022/09/26 00:13:41;;;;;;;56.47;31.52;;;6.00;99.90;;;;;;5074506;28;20111;-73
2022/09/26 00:16:08;;;;;;;58.15;30.63;;;5.90;99.90;;;;;;5074570;28;20025;-73
2022/09/26 00:18:34;;;;;;;58.78;32.00;;;5.80;99.90;;;;;;5074464;28;20024;-79
2022/09/26 00:21:11;;;;;;;47.63;29.80;;;5.70;99.90;;;;;;5074393;28;20481;-79
2022/09/26 00:23:37;;;;;;;68.60;35.10;;;5.70;99.90;;;;;;5073014;28;20024;-79
2022/09/26 00:26:04;;;;;;;77.75;35.35;;;5.70;99.90;;;;;;5072993;28;20526;-73
2022/09/26 00:28:30;;;;;;;77.35;33.65;;;5.60;99.90;;;;;;5073095;28;20077;-79
2022/09/26 00:30:57;;;;;;;53.08;27.67;;;5.60;99.90;;;;;;5072696;28;20394;-73
2022/09/26 00:33:23;;;;;;;58.88;27.83;;;5.50;99.90;;;;;;5074353;28;20118;-79
2022/09/26 00:35:50;;;;;;;45.85;26.70;;;5.50;99.90;;;;;;5078758;28;20058;-79
2022/09/26 00:38:17;;;;;;;65.68;30.75;;;5.50;99.90;;;;;;5074026;28;20017;-73
2022/09/26 00:40:43;;;;;;;63.38;30.33;;;5.50;99.90;;;;;;5072810;28;20107;-79
2022/09/26 00:43:30;;;;;;;57.05;29.42;;;5.50;99.90;;;;;;5074245;28;20059;-74
2022/09/26 00:46:05;;;;;;;59.80;30.73;;;5.50;99.90;;;;;;5073900;28;20104;-79
2022/09/26 00:48:33;;;;;;;55.97;27.65;;;5.50;99.90;;;;;;5073262;28;20063;-73
2022/09/26 00:50:59;;;;;;;49.10;27.33;;;5.60;99.90;;;;;;5073861;28;20028;-79
2022/09/26 00:53:30;;;;;;;53.33;27.63;;;5.60;99.90;;;;;;5073923;28;20047;-73
2022/09/26 00:56:05;;;;;;;52.15;27.08;;;5.60;99.90;;;;;;5073747;28;20028;-74
2022/09/26 00:58:37;;;;;;;55.00;27.65;;;5.60;99.90;;;;;;5072747;28;20028;-79
2022/09/26 01:01:03;;;;;;;61.28;30.67;;;5.60;99.90;;;;;;5073603;28;20025;-73
2022/09/26 01:03:30;;;;;;;70.82;30.17;;;5.60;99.90;;;;;;5073764;28;20023;-79
2022/09/26 01:05:58;;;;;;;94.78;33.95;;;5.60;99.90;;;;;;5073400;28;20123;-80
2022/09/26 01:08:39;;;;;;;73.80;29.92;;;5.60;99.90;;;;;;5073635;28;20028;-73
2022/09/26 01:11:06;;;;;;;74.32;34.75;;;5.60;99.90;;;;;;5073634;28;20017;-79
2022/09/26 01:13:35;;;;;;;87.88;34.63;;;5.70;99.90;;;;;;5072376;28;20035;-80
2022/09/26 01:16:02;;;;;;;81.95;32.17;;;5.70;99.90;;;;;;5073466;28;20021;-79
2022/09/26 01:18:28;;;;;;;83.45;30.73;;;5.70;99.90;;;;;;5073581;28;20074;-73
2022/09/26 01:20:59;;;;;;;65.05;30.63;;;5.70;99.90;;;;;;5073186;28;20027;-79
2022/09/26 01:23:43;;;;;;;96.60;29.33;;;5.70;99.90;;;;;;5073496;28;20036;-80
2022/09/26 01:26:29;;;;;;;70.10;28.58;;;5.60;99.90;;;;;;5071925;28;20116;-73
2022/09/26 01:29:40;;;;;;;65.85;27.33;;;5.60;99.90;;;;;;5073325;28;20025;-73
2022/09/26 01:32:49;;;;;;;45.42;23.05;;;5.60;99.90;;;;;;5073308;28;20074;-73
2022/09/26 01:35:30;;;;;;;72.18;25.58;;;5.60;99.90;;;;;;5076860;28;20051;-73
2022/09/26 01:38:25;;;;;;;40.42;23.13;;;5.50;99.90;;;;;;5093744;28;20058;-73
2022/09/26 01:41:06;;;;;;;48.53;26.55;;;5.50;99.90;;;;;;5093534;28;20386;-79
2022/09/26 01:43:55;;;;;;;50.28;24.75;;;5.50;99.90;;;;;;5092167;28;20081;-73
2022/09/26 01:47:00;;;;;;;40.80;23.30;;;5.50;99.90;;;;;;5093348;28;20024;-79
2022/09/26 01:49:54;;;;;;;40.15;22.13;;;5.50;99.90;;;;;;5093353;28;20028;-73
2022/09/26 01:52:37;;;;;;;49.03;25.10;;;5.60;99.90;;;;;;5091966;28;20489;-79
2022/09/26 01:55:14;;;;;;;52.08;27.45;;;5.50;99.90;;;;;;5093378;28;20085;-73
2022/09/26 01:57:47;;;;;;;50.55;24.85;;;5.60;99.90;;;;;;5093364;28;20045;-79
2022/09/26 02:00:12;;;;;;;42.63;25.10;;;5.60;99.90;;;;;;5095289;28;20024;-73
2022/09/26 02:02:46;;;;;;;43.47;24.45;;;5.60;99.90;;;;;;5097390;28;20069;-73
2022/09/26 02:05:34;;;;;;;44.97;25.25;;;5.70;99.90;;;;;;5097293;28;20473;-73
2022/09/26 02:08:23;;;;;;;47.67;25.73;;;5.70;99.90;;;;;;5097476;28;20062;-79
2022/09/26 02:11:03;;;;;;;47.63;25.20;;;5.70;99.90;;;;;;5096083;28;20024;-73
2022/09/26 02:13:36;;;;;;;50.35;26.27;;;5.70;99.90;;;;;;5097454;28;20024;-73
2022/09/26 02:16:13;;;;;;;49.75;25.27;;;5.80;99.90;;;;;;5097344;28;20119;-79
2022/09/26 02:18:49;;;;;;;47.00;25.45;;;5.90;99.90;;;;;;5112890;28;20024;-73
2022/09/26 02:21:19;;;;;;;47.30;24.92;;;5.90;99.90;;;;;;5095688;28;20024;-79
2022/09/26 02:23:47;;;;;;;40.75;25.23;;;5.90;99.90;;;;;;5095746;28;20012;-73
2022/09/26 02:26:12;;;;;;;49.75;25.75;;;6.00;99.90;;;;;;5096991;28;20032;-73
2022/09/26 02:28:38;;;;;;;54.42;24.52;;;5.90;99.90;;;;;;5097007;28;20028;-79
2022/09/26 02:31:07;;;;;;;48.25;25.67;;;6.00;99.90;;;;;;5096541;28;20020;-72
2022/09/26 02:33:33;;;;;;;42.83;24.70;;;6.00;99.90;;;;;;5097081;28;20388;-79
2022/09/26 02:36:00;;;;;;;46.60;26.33;;;6.00;99.90;;;;;;5091204;28;20027;-79
2022/09/26 02:38:29;;;;;;;50.75;27.17;;;6.10;99.90;;;;;;5075220;28;20485;-73
2022/09/26 02:41:06;;;;;;;49.92;27.15;;;6.10;99.90;;;;;;5075120;28;20040;-72
2022/09/26 02:43:50;;;;;;;51.20;24.55;;;6.10;99.90;;;;;;5076412;28;20059;-79
2022/09/26 02:46:32;;;;;;;46.03;23.70;;;6.20;99.90;;;;;;5076346;28;20033;-73
2022/09/26 02:49:11;;;;;;;44.65;23.25;;;6.10;99.90;;;;;;5076461;28;20017;-73
2022/09/26 02:52:01;;;;;;;44.50;24.85;;;6.10;99.90;;;;;;5076129;28;20531;-79
2022/09/26 02:54:38;;;;;;;36.17;21.35;;;6.20;99.90;;;;;;5076216;28;20162;-72
2022/09/26 02:57:21;;;;;;;38.03;22.63;;;6.20;99.90;;;;;;5076262;28;20028;-72
2022/09/26 03:00:06;;;;;;;;;;;6.20;99.90;;;;;;5076523;28;20056;-73
2022/09/26 03:02:49;;;;;;;37.67;22.67;;;6.20;99.90;;;;;;5076110;28;19948;-78
2022/09/26 03:05:22;;;;;;;47.85;24.20;;;6.20;99.90;;;;;;5076059;28;20551;-79
2022/09/26 03:07:50;;;;;;;;;;;6.30;99.90;;;;;;5076537;28;20020;-79
2022/09/26 03:10:17;;;;;;;36.88;22.90;;;6.30;99.90;;;;;;5073704;28;19999;-73
2022/09/26 03:12:43;;;;;;;33.30;20.30;;;6.30;99.90;;;;;;5077995;28;20036;-79
2022/09/26 03:15:10;;;;;;;35.58;21.38;;;6.30;99.90;;;;;;5096080;28;20088;-72
2022/09/26 03:17:41;;;;;;;38.33;21.92;;;6.40;99.90;;;;;;5096032;28;20495;-79
2022/09/26 03:20:12;;;;;;;38.97;23.40;;;6.40;99.90;;;;;;5096233;28;20024;-79
2022/09/26 03:22:38;;;;;;;41.53;22.63;;;6.40;99.90;;;;;;5095957;28;20052;-73
2022/09/26 03:25:06;;;;;;;45.67;23.40;;;6.50;99.90;;;;;;5095875;28;20071;-73
2022/09/26 03:27:33;;;;;;;47.05;24.65;;;6.50;99.90;;;;;;5095844;28;20020;-73
2022/09/26 03:29:59;;;;;;;35.78;22.33;;;6.50;99.90;;;;;;5095718;28;20043;-73
2022/09/26 03:32:25;;;;;;;39.75;23.30;;;6.60;99.90;;;;;;5094104;28;20127;-73
2022/09/26 03:34:50;;;;;;;46.63;25.02;;;6.60;99.90;;;;;;5094355;28;20108;-73
2022/09/26 03:37:16;;;;;;;41.38;23.15;;;6.60;99.90;;;;;;5079052;28;20044;-74
2022/09/26 03:39:43;;;;;;;40.83;23.98;;;6.70;99.90;;;;;;5075221;28;20026;-79
2022/09/26 03:42:09;;;;;;;36.13;22.17;;;6.70;99.90;;;;;;5075332;28;20024;-79
2022/09/26 03:44:35;;;;;;;40.47;22.63;;;6.80;99.90;;;;;;5075403;28;20486;-73
2022/09/26 03:47:00;;;;;;;38.67;20.70;;;6.80;99.90;;;;;;5073914;28;20027;-73
2022/09/26 03:49:26;;;;;;;36.05;20.55;;;6.80;99.90;;;;;;5075250;28;20016;-72
2022/09/26 03:51:51;;;;;;;42.80;24.00;;;6.80;99.90;;;;;;5074960;28;20024;-72
2022/09/26 03:54:17;;;;;;;48.03;25.90;;;6.80;99.90;;;;;;5073847;28;20028;-79
2022/09/26 03:56:43;;;;;;;54.20;27.15;;;6.90;99.90;;;;;;5075053;28;20513;-79
2022/09/26 03:59:09;;;;;;;50.20;25.90;;;7.00;99.90;;;;;;5074845;28;20021;-79
2022/09/26 04:01:34;;;;;;;56.60;29.00;;;7.10;99.90;;;;;;5075051;28;20020;-73
2022/09/26 04:04:00;;;;;;;55.42;27.77;;;7.10;99.90;;;;;;5074745;28;20024;-79
2022/09/26 04:06:27;;;;;;;59.00;30.33;;;7.20;99.90;;;;;;5074823;28;20070;-74
2022/09/26 04:08:53;;;;;;;55.80;31.20;;;7.20;99.90;;;;;;5074813;28;20478;-73
2022/09/26 04:11:21;;;;;;;60.05;30.35;;;7.30;99.90;;;;;;5074747;28;20154;-79
2022/09/26 04:13:47;;;;;;;65.90;32.22;;;7.30;99.90;;;;;;5073426;28;20111;-79
2022/09/26 04:16:13;;;;;;;66.43;33.00;;;7.40;99.90;;;;;;5090757;28;20054;-79
2022/09/26 04:18:39;;;;;;;68.07;34.58;;;7.40;99.90;;;;;;5094689;28;20024;-79
2022/09/26 04:21:08;;;;;;;76.93;36.45;;;7.40;99.90;;;;;;5093585;28;20020;-79
2022/09/26 04:23:39;;;;;;;66.30;33.35;;;7.50;99.90;;;;;;5094761;28;20035;-73
2022/09/26 04:26:13;;;;;;;64.65;33.63;;;7.50;99.90;;;;;;5094685;28;20064;-79
2022/09/26 04:28:41;;;;;;;69.63;35.95;;;7.50;99.90;;;;;;5094507;28;20020;-79
2022/09/26 04:31:09;;;;;;;68.40;35.55;;;7.60;99.90;;;;;;5094467;28;20050;-72
2022/09/26 04:33:36;;;;;;;65.03;36.22;;;7.60;99.90;;;;;;5094511;28;20095;-73
2022/09/26 04:36:05;;;;;;;68.13;35.20;;;7.70;99.90;;;;;;5087992;28;20024;-79
2022/09/26 04:38:33;;;;;;;69.45;35.40;;;7.70;99.90;;;;;;5072948;28;20031;-79
2022/09/26 04:41:06;;;;;;;60.00;34.78;;;7.70;99.90;;;;;;5072915;28;20044;-73
2022/09/26 04:43:31;;;;;;;;;;;7.70;99.90;;;;;;5074440;28;20095;-80
2022/09/26 04:45:57;;;;;;;61.58;31.85;;;7.80;99.90;;;;;;5073915;28;20010;-73
2022/09/26 04:48:23;;;;;;;63.05;34.03;;;7.70;99.90;;;;;;5073984;28;20028;-78
2022/09/26 04:50:49;;;;;;;61.55;35.42;;;7.80;99.90;;;;;;5073789;28;20033;-79
2022/09/26 04:53:16;;;;;;;62.83;34.08;;;7.80;99.90;;;;;;5073700;28;20020;-74
2022/09/26 04:55:43;;;;;;;59.90;32.88;;;7.90;99.90;;;;;;5073871;28;20032;-73
2022/09/26 04:58:10;;;;;;;63.45;35.30;;;7.90;99.90;;;;;;5073870;28;20103;-79
2022/09/26 05:00:35;;;;;;;63.38;37.40;;;7.90;99.90;;;;;;5074346;28;20066;-79
2022/09/26 05:03:01;;;;;;;61.75;34.10;;;7.90;99.90;;;;;;5093971;28;20417;-80
2022/09/26 05:05:29;;;;;;;63.90;35.05;;;7.90;99.90;;;;;;5092005;28;20067;-73
2022/09/26 05:07:56;;;;;;;65.18;34.80;;;7.90;99.90;;;;;;5093857;28;20031;-73
2022/09/26 05:10:22;;;;;;;58.13;32.60;;;8.00;99.90;;;;;;5092588;28;20031;-79
2022/09/26 05:12:47;;;;;;;60.08;32.08;;;8.00;99.90;;;;;;5093891;28;20042;-72
2022/09/26 05:15:13;;;;;;;66.38;35.60;;;8.00;99.90;;;;;;5093724;28;20024;-77
2022/09/26 05:17:38;;;;;;;54.63;30.58;;;8.00;99.90;;;;;;5093614;28;20020;-78
2022/09/26 05:20:09;;;;;;;60.38;35.50;;;8.00;99.90;;;;;;5093538;28;20059;-78
2022/09/26 05:22:35;;;;;;;59.65;33.13;;;8.00;99.90;;;;;;5094415;28;20020;-78
2022/09/26 05:27:45;;;;;;;63.80;37.25;;;8.10;99.90;;;;;;5083580;28;20050;-72
2022/09/26 05:30:11;;;;;;;71.70;40.17;;;8.20;99.90;;;;;;5090905;28;20028;-72
2022/09/26 05:32:38;;;;;;;66.72;38.90;;;8.20;99.90;;;;;;5092313;28;20040;-72
2022/09/26 05:35:04;;;;;;;71.60;39.53;;;8.30;99.90;;;;;;5083602;28;20035;-72
2022/09/26 05:37:30;;;;;;;75.07;43.30;;;8.30;99.90;;;;;;5074716;28;20025;-72
2022/09/26 05:42:40;;;;;;;73.65;42.22;;;8.50;99.90;;;;;;5092824;28;20066;-72
2022/09/26 05:45:06;;;;;;;73.65;42.45;;;8.60;99.90;;;;;;5091750;28;20059;-72
2022/09/26 05:47:35;;;;;;;77.95;43.30;;;8.60;99.90;;;;;;5092023;28;20066;-73
2022/09/26 05:50:08;;;;;;;78.50;44.75;;;8.70;99.90;;;;;;5090748;28;20461;-72
2022/09/26 05:52:35;;;;;;;73.05;40.97;;;8.80;99.90;;;;;;5092267;28;20023;-72
2022/09/26 05:55:01;;;;;;;74.88;44.10;;;8.80;99.90;;;;;;5091148;28;20068;-72
2022/09/26 05:57:27;;;;;;;83.05;47.13;;;8.90;99.90;;;;;;5092352;28;20424;-73
2022/09/26 05:59:52;;;;;;;90.30;50.45;;;9.00;99.90;;;;;;5088789;28;20035;-72
2022/09/26 06:02:18;;;;;;;76.47;45.83;;;9.10;99.90;;;;;;5091279;28;20020;-73
2022/09/26 06:04:43;;;;;;;84.68;49.13;;;9.20;99.90;;;;;;5090622;28;20066;-72
2022/09/26 06:07:11;;;;;;;84.38;48.00;;;9.20;99.90;;;;;;5090999;28;20020;-73
2022/09/26 06:09:37;;;;;;;78.43;46.47;;;9.20;99.90;;;;;;5090597;28;20028;-79
2022/09/26 06:12:02;;;;;;;78.35;45.08;;;9.30;99.90;;;;;;5089969;28;20039;-79
2022/09/26 06:14:28;;;;;;;76.65;47.13;;;9.30;99.90;;;;;;5092560;28;20024;-72
2022/09/26 06:16:54;;;;;;;81.47;47.30;;;9.30;99.90;;;;;;5088279;28;20042;-73
2022/09/26 06:19:19;;;;;;;74.28;44.70;;;9.40;99.90;;;;;;5072695;28;20485;-79
2022/09/26 06:21:45;;;;;;;73.18;46.28;;;9.40;99.90;;;;;;5072984;28;20025;-73
2022/09/26 06:24:11;;;;;;;68.93;43.38;;;9.50;99.90;;;;;;5071362;28;20028;-79
2022/09/26 06:26:37;;;;;;;84.70;47.70;;;9.50;99.90;;;;;;5072937;28;20075;-73
2022/09/26 06:29:03;;;;;;;63.95;41.38;;;9.50;99.90;;;;;;5071556;28;20044;-79
2022/09/26 06:31:29;;;;;;;64.03;40.30;;;9.60;99.90;;;;;;5072614;28;20110;-72
2022/09/26 06:33:54;;;;;;;75.45;44.17;;;9.60;99.90;;;;;;5089953;28;20380;-72
2022/09/26 06:36:22;;;;;;;66.75;41.42;;;9.60;99.90;;;;;;5083095;28;20032;-76
2022/09/26 06:38:48;;;;;;;63.75;40.08;;;9.60;99.90;;;;;;5072738;28;20056;-76
2022/09/26 06:41:15;;;;;;;74.93;47.10;;;9.70;99.90;;;;;;5074452;28;20025;-72
2022/09/26 06:43:44;;;;;;;69.93;43.55;;;9.70;99.90;;;;;;5092481;28;20024;-76
2022/09/26 06:46:14;;;;;;;71.60;45.63;;;9.80;99.90;;;;;;5092332;28;20466;-76
2022/09/26 06:48:40;;;;;;;76.57;47.95;;;9.90;99.90;;;;;;5095384;28;20046;-76
2022/09/26 06:51:07;;;;;;;76.47;48.55;;;10.00;99.90;;;;;;5096591;28;20028;-72
2022/09/26 06:53:33;;;;;;;78.78;47.20;;;10.00;99.90;;;;;;5096687;28;20024;-76
2022/09/26 06:56:00;;;;;;;63.65;39.30;;;10.10;99.90;;;;;;5096425;28;20020;-75
2022/09/26 06:58:26;;;;;;;74.63;46.60;;;10.10;99.90;;;;;;5095518;28;20020;-70
2022/09/26 07:00:52;;;;;;;65.85;41.58;;;10.20;99.90;;;;;;5096001;28;20039;-74
2022/09/26 07:03:18;;;;;;;61.13;39.25;;;10.20;99.90;;;;;;5094539;28;20028;-71
2022/09/26 07:05:44;;;;;;;59.10;37.97;;;10.20;99.90;;;;;;5094233;28;20075;-73
2022/09/26 07:08:10;;;;;;;53.95;36.38;;;10.20;99.90;;;;;;5093690;28;20048;-70
2022/09/26 07:10:36;;;;;;;52.13;35.70;;;10.30;99.90;;;;;;5089815;28;20063;-74
2022/09/26 07:13:05;;;;;;;51.25;34.88;;;10.30;99.90;;;;;;5075082;28;20420;-73
2022/09/26 07:15:33;;;;;;;49.92;31.77;;;10.30;99.90;;;;;;5074808;28;20107;-70
2022/09/26 07:18:05;;;;;;;51.15;33.00;;;10.30;99.90;;;;;;5075754;28;20034;-70
2022/09/26 07:20:33;;;;;;;47.38;32.67;;;10.40;99.90;;;;;;5075824;28;20025;-74
2022/09/26 07:23:03;;;;;;;56.60;37.30;;;10.40;99.90;;;;;;5075237;28;20021;-74
2022/09/26 07:25:30;;;;;;;53.05;37.30;;;10.50;99.90;;;;;;5075548;28;20066;-74
2022/09/26 07:27:56;;;;;;;56.35;36.58;;;10.50;99.90;;;;;;5075671;28;20021;-70
2022/09/26 07:30:22;;;;;;;55.75;37.28;;;10.60;99.90;;;;;;5075362;28;20039;-72
2022/09/26 07:32:48;;;;;;;54.42;37.70;;;10.70;99.90;;;;;;5075464;28;20052;-74
2022/09/26 07:35:16;;;;;;;56.25;38.08;;;10.80;99.90;;;;;;5080666;28;20016;-74
2022/09/26 07:37:42;;;;;;;55.42;36.30;;;10.80;99.90;;;;;;5094470;28;20481;-73
2022/09/26 07:40:08;;;;;;;53.65;34.78;;;10.80;99.90;;;;;;5095157;28;20040;-74
2022/09/26 07:42:35;;;;;;;53.20;33.53;;;10.80;99.90;;;;;;5095565;28;20025;-70
2022/09/26 07:45:00;;;;;;;47.67;34.53;;;10.90;99.90;;;;;;5084424;28;20033;-70
2022/09/26 07:50:11;;;;;;;44.30;31.27;;;10.90;99.90;;;;;;5094261;28;20028;-74
2022/09/26 07:52:38;;;;;;;43.05;32.42;;;11.00;99.90;;;;;;5092166;28;20023;-74
2022/09/26 07:55:05;;;;;;;41.47;30.27;;;11.00;99.90;;;;;;5094701;28;20020;-74
2022/09/26 07:57:34;;;;;;;45.10;32.45;;;11.00;99.90;;;;;;5094199;28;20032;-74
2022/09/26 08:00:00;;;;;;;48.80;33.22;;;11.10;99.90;;;;;;5094458;28;20012;-74
2022/09/26 08:02:33;;;;;;;60.42;37.55;;;11.10;99.90;;;;;;5093281;28;20065;-74
2022/09/26 08:05:02;;;;;;;47.33;33.17;;;11.10;99.90;;;;;;5094436;28;20039;-74
2022/09/26 08:07:32;;;;;;;44.85;31.88;;;11.20;99.90;;;;;;5095127;28;20051;-74
2022/09/26 08:10:00;;;;;;;35.40;26.38;;;11.20;99.90;;;;;;5092972;28;20031;-74
2022/09/26 08:12:26;;;;;;;36.78;27.20;;;11.30;99.90;;;;;;5084756;28;20017;-74
2022/09/26 08:14:52;;;;;;;36.65;27.20;;;11.40;99.90;;;;;;5094394;28;20103;-75
2022/09/26 08:17:18;;;;;;;40.38;27.67;;;11.40;99.90;;;;;;5092106;28;20111;-74
2022/09/26 08:19:44;;;;;;;36.85;25.90;;;11.50;99.90;;;;;;5094259;28;20028;-74
2022/09/26 08:22:10;;;;;;;36.17;27.60;;;11.60;99.90;;;;;;5094532;28;20043;-72
2022/09/26 08:24:37;;;;;;;41.35;26.25;;;11.70;99.90;;;;;;5094810;28;20036;-71
2022/09/26 08:27:03;;;;;;;37.25;25.30;;;11.80;99.90;;;;;;5093445;28;20043;-71
2022/09/26 08:29:33;;;;;;;37.30;26.92;;;11.90;99.90;;;;;;5094815;28;20093;-70
2022/09/26 08:32:01;;;;;;;38.13;27.83;;;11.90;99.90;;;;;;5093029;28;20044;-74
2022/09/26 08:34:26;;;;;;;35.75;27.15;;;12.00;99.90;;;;;;5093457;28;20443;-74
2022/09/26 08:36:53;;;;;;;35.92;26.40;;;12.10;99.90;;;;;;5094378;28;20031;-73
2022/09/26 08:39:20;;;;;;;37.22;27.88;;;12.20;99.90;;;;;;5094322;28;20073;-71
2022/09/26 08:42:22;;;;;;;38.65;27.88;;;12.30;99.90;;;;;;5091606;28;20043;-70
2022/09/26 08:48:18;;;;;;;42.55;29.05;;;12.60;99.90;;;;;;5094395;28;20405;-70
2022/09/26 08:50:48;;;;;;;32.55;23.95;;;12.70;99.90;;;;;;5091915;28;20063;-71
2022/09/26 08:53:39;;;;;;;30.77;22.42;;;12.80;99.90;;;;;;5094260;28;20377;-75
2022/09/26 08:56:15;;;;;;;32.03;22.70;;;13.00;99.90;;;;;;5092987;28;20061;-70
2022/09/26 08:58:50;;;;;;;28.88;21.00;;;13.10;99.90;;;;;;5094084;28;20023;-73
2022/09/26 09:01:27;;;;;;;27.55;20.85;;;13.20;99.90;;;;;;5094084;28;20020;-74
2022/09/26 09:04:30;;;;;;;26.98;20.25;;;13.30;99.90;;;;;;5094221;28;20048;-71
2022/09/26 09:07:06;;;;;;;20.13;16.63;;;13.40;99.90;;;;;;5094091;28;20032;-71
2022/09/26 09:09:31;;;;;;;19.88;16.40;;;13.40;99.90;;;;;;5093349;28;20127;-74
2022/09/26 09:12:33;;;;;;;23.35;17.75;;;13.50;99.90;;;;;;5093890;28;20494;-74
2022/09/26 09:15:39;;;;;;;21.30;16.38;;;13.50;99.90;;;;;;5093612;28;20027;-74
2022/09/26 09:18:23;;;;;;;19.52;15.10;;;13.60;99.90;;;;;;5077742;28;20445;-71
2022/09/26 09:21:06;;;;;;;14.02;11.05;;;13.60;99.90;;;;;;5092668;28;20031;-70
2022/09/26 09:23:47;;;;;;;13.18;10.02;;;13.70;99.90;;;;;;5093728;28;20497;-71
2022/09/26 09:26:36;;;;;;;16.25;11.82;;;13.70;99.90;;;;;;5093734;28;20032;-75
2022/09/26 09:29:32;;;;;;;10.98;9.25;;;13.70;99.90;;;;;;5092364;28;20111;-71
2022/09/26 09:32:01;;;;;;;13.07;10.32;;;13.80;99.90;;;;;;5093435;28;20517;-71
2022/09/26 09:34:31;;;;;;;14.70;13.10;;;13.80;99.90;;;;;;5092416;28;20172;-71
2022/09/26 09:37:02;;;;;;;17.77;14.10;;;13.90;99.90;;;;;;5088981;28;20016;-71
2022/09/26 09:39:34;;;;;;;25.02;15.77;;;13.90;99.90;;;;;;5093763;28;20040;-74
2022/09/26 09:42:11;;;;;;;18.80;15.43;;;13.90;99.90;;;;;;5093455;28;20027;-74
2022/09/26 09:44:43;;;;;;;22.48;15.70;;;14.00;99.90;;;;;;5092165;28;20032;-71
2022/09/26 09:47:15;;;;;;;21.25;15.43;;;13.90;99.90;;;;;;5092273;28;20019;-73
2022/09/26 09:49:42;;;;;;;19.08;15.57;;;13.90;99.90;;;;;;5091238;28;20024;-73
2022/09/26 09:52:07;;;;;;;18.75;14.90;;;13.90;99.90;;;;;;5092585;28;20437;-74
2022/09/26 09:54:45;;;;;;;17.23;14.23;;;13.90;99.90;;;;;;5092388;28;20051;-74
2022/09/26 09:57:33;;;;;;;22.83;17.20;;;14.00;99.90;;;;;;5092414;28;20496;-74
2022/09/26 10:00:19;;;;;;;17.10;14.25;;;14.10;99.90;;;;;;5092436;28;20060;-79
2022/09/26 10:03:17;;;;;;;18.33;14.65;;;14.10;99.90;;;;;;5092074;28;20027;-78
2022/09/26 10:05:50;;;;;;;17.83;15.18;;;14.10;99.90;;;;;;5091848;28;20067;-74
2022/09/26 10:08:21;;;;;;;;;;;14.30;99.90;;;;;;5089771;28;20024;-74
2022/09/26 10:11:22;;;;;;;16.95;13.20;;;14.30;99.90;;;;;;5092806;28;19904;-73
2022/09/26 10:13:52;;;;;;;13.98;12.23;;;14.40;99.90;;;;;;5093285;28;20047;-79
2022/09/26 10:16:19;;;;;;;13.55;11.27;;;14.40;99.90;;;;;;5091993;28;20023;-79
2022/09/26 10:18:59;;;;;;;13.40;10.73;;;14.40;99.90;;;;;;5092971;28;20070;-76
2022/09/26 10:21:34;;;;;;;13.90;11.10;;;14.40;99.90;;;;;;5086827;28;20024;-77
2022/09/26 10:24:03;;;;;;;12.57;11.27;;;14.50;99.90;;;;;;5075273;28;20029;-77
2022/09/26 10:26:33;;;;;;;14.27;10.32;;;14.60;99.90;;;;;;5076679;28;20025;-77
2022/09/26 10:29:07;;;;;;;9.88;8.77;;;14.70;99.90;;;;;;5074687;28;20111;-77
2022/09/26 10:31:40;;;;;;;13.75;10.82;;;14.70;99.90;;;;;;5075874;28;20049;-77
2022/09/26 10:34:22;;;;;;;13.75;10.18;;;14.70;99.90;;;;;;5074403;28;20020;-77
2022/09/26 10:36:48;;;;;;;14.73;10.23;;;14.70;99.90;;;;;;5092984;28;20473;-77
2022/09/26 10:42:18;;;;;;;14.80;11.15;;;14.70;99.90;;;;;;5095236;28;20042;-76
2022/09/26 10:44:45;;;;;;;17.77;10.38;;;14.60;99.90;;;;;;5095342;28;20458;-77
2022/09/26 10:47:17;;;;;;;11.93;9.88;;;14.60;99.90;;;;;;5094166;28;20090;-77
2022/09/26 10:49:50;;;;;;;16.17;13.48;;;14.60;99.90;;;;;;5088705;28;20028;-77
2022/09/26 10:52:42;;;;;;;14.85;11.73;;;14.70;99.90;;;;;;5095091;28;20424;-77
2022/09/26 10:55:11;;;;;;;13.02;9.82;;;14.80;99.90;;;;;;5091037;28;20028;-76
2022/09/26 10:57:44;;;;;;;19.90;12.30;;;14.80;99.90;;;;;;5091447;28;20508;-77
2022/09/26 11:00:37;;;;;;;11.07;9.75;;;14.80;99.90;;;;;;5089759;28;20031;-77
2022/09/26 11:03:09;;;;;;;18.13;10.32;;;14.90;99.90;;;;;;5092588;28;20089;-77
2022/09/26 11:05:56;;;;;;;11.52;9.23;;;15.10;99.90;;;;;;5093674;28;20493;-76
2022/09/26 11:08:27;;;;;;;12.30;10.50;;;15.20;99.90;;;;;;5095051;28;20032;-77
2022/09/26 11:10:59;;;;;;;11.23;8.40;;;15.40;99.90;;;;;;5093631;28;20050;-76
2022/09/26 11:13:27;;;;;;;12.90;8.27;;;15.50;99.90;;;;;;5091462;28;20537;-76
2022/09/26 11:16:05;;;;;;;12.30;8.70;;;15.50;99.90;;;;;;5069704;28;20644;-76
2022/09/26 11:18:50;;;;;;;13.75;11.18;;;15.50;99.90;;;;;;5070534;28;20028;-76
2022/09/26 11:21:40;;;;;;;9.52;8.43;;;15.60;99.90;;;;;;5073113;28;20025;-77
2022/09/26 11:24:23;;;;;;;10.38;9.27;;;15.60;99.90;;;;;;5063039;28;20059;-76
2022/09/26 11:27:07;;;;;;;19.05;14.55;;;15.60;99.90;;;;;;5070205;28;20027;-76
2022/09/26 11:29:40;;;;;;;15.98;11.25;;;15.60;99.90;;;;;;5073569;28;20478;-76
2022/09/26 11:32:17;;;;;;;10.38;9.27;;;15.40;99.90;;;;;;5071914;28;20136;-75
2022/09/26 11:34:44;;;;;;;14.73;9.18;;;15.50;99.90;;;;;;5077031;28;20021;-76
2022/09/26 11:37:29;;;;;;;10.77;9.40;;;15.60;99.90;;;;;;5074105;28;20024;-77
2022/09/26 11:40:13;;;;;;;17.38;12.57;;;15.60;99.90;;;;;;5072129;28;20426;-77
2022/09/26 11:42:53;;;;;;;17.50;12.73;;;15.70;99.90;;;;;;5072772;28;20020;-78
2022/09/26 11:45:36;;;;;;;6.50;5.90;;;15.90;99.90;;;;;;5075294;28;20029;-78
2022/09/26 11:48:17;;;;;;;6.40;5.70;;;16.00;99.90;;;;;;5075485;28;20025;-77
2022/09/26 11:50:43;;;;;;;6.82;6.13;;;16.20;99.90;;;;;;5073936;28;20035;-78
2022/09/26 11:53:31;;;;;;;6.50;5.90;;;16.50;99.90;;;;;;5074132;28;20413;-78
2022/09/26 11:56:23;;;;;;;8.63;6.82;;;16.60;99.90;;;;;;5073974;28;20027;-77
2022/09/26 11:59:14;;;;;;;7.05;6.35;;;16.70;99.90;;;;;;5073936;28;20029;-77
2022/09/26 12:01:54;;;;;;;10.02;7.68;;;16.90;99.90;;;;;;5075173;28;20044;-78
2022/09/26 12:04:26;;;;;;;7.43;6.65;;;17.10;99.90;;;;;;5074929;28;20496;-78
2022/09/26 12:07:15;;;;;;;9.65;7.50;;;17.20;99.90;;;;;;5073802;28;20039;-78
2022/09/26 12:10:09;;;;;;;7.22;6.10;;;17.00;99.90;;;;;;5074866;28;20024;-78
2022/09/26 12:12:40;;;;;;;7.00;6.40;;;16.80;99.90;;;;;;5073656;28;20047;-77
2022/09/26 12:15:37;;;;;;;9.45;6.80;;;16.70;99.90;;;;;;5073511;28;20069;-78
2022/09/26 12:18:14;;;;;;;8.00;6.85;;;16.50;99.90;;;;;;5073573;28;20024;-78
2022/09/26 12:21:06;;;;;;;7.82;6.90;;;16.40;99.90;;;;;;5073370;28;20028;-78
2022/09/26 12:23:50;;;;;;;9.23;8.20;;;16.40;99.90;;;;;;5074814;28;20120;-78
2022/09/26 12:26:28;;;;;;;8.52;7.57;;;16.30;99.90;;;;;;5074471;28;20090;-77
2022/09/26 12:29:13;;;;;;;8.80;7.90;;;16.30;99.90;;;;;;5074585;28;20024;-78
2022/09/26 12:31:49;;;;;;;9.32;8.10;;;16.10;99.90;;;;;;5073078;28;20105;-78
2022/09/26 12:34:36;;;;;;;11.00;9.90;;;15.90;99.90;;;;;;5073139;28;20375;-78
2022/09/26 12:37:40;;;;;;;14.82;12.02;;;15.90;99.90;;;;;;5094732;28;20088;-77
2022/09/26 12:40:26;;;;;;;11.80;10.20;;;15.90;99.90;;;;;;5093341;28;20024;-78
2022/09/26 12:43:24;;;;;;;17.13;11.55;;;15.80;99.90;;;;;;5092978;28;20044;-78
2022/09/26 12:46:11;;;;;;;15.88;12.20;;;15.80;99.90;;;;;;5094326;28;20028;-78
2022/09/26 12:48:52;;;;;;;17.02;12.40;;;15.80;99.90;;;;;;5093114;28;20027;-78
2022/09/26 12:51:39;;;;;;;14.15;12.65;;;15.90;99.90;;;;;;5093119;28;20028;-77
2022/09/26 12:54:23;;;;;;;16.23;13.07;;;16.00;99.90;;;;;;5093171;28;20016;-77
2022/09/26 12:57:03;;;;;;;15.70;13.57;;;16.10;99.90;;;;;;5092963;28;20024;-77
2022/09/26 12:59:49;;;;;;;14.00;12.38;;;16.10;99.90;;;;;;5092996;28;20028;-78
2022/09/26 13:02:47;;;;;;;15.13;12.73;;;16.10;99.90;;;;;;5092718;28;20060;-78
2022/09/26 13:05:30;;;;;;;14.57;12.75;;;16.10;99.90;;;;;;5092555;28;20097;-77
2022/09/26 13:08:32;;;;;;;13.70;11.90;;;16.20;99.90;;;;;;5092729;28;20513;-77
2022/09/26 13:11:19;;;;;;;14.60;12.02;;;16.20;99.90;;;;;;5109353;28;20076;-77
2022/09/26 13:13:50;;;;;;;59.47;29.00;;;16.30;99.90;;;;;;5094035;28;20051;-77
2022/09/26 13:17:05;;;;;;;19.55;15.35;;;16.30;99.90;;;;;;5092404;28;20024;-78
2022/09/26 13:19:50;;;;;;;20.15;14.43;;;16.30;99.90;;;;;;5092694;28;20012;-77
2022/09/26 13:22:31;;;;;;;14.85;10.90;;;16.40;99.90;;;;;;5094015;28;20024;-78